sensor_id;sensor_type;location;lat;lon;timestamp;pressure;altitude;pressure_sealevel;temperature;humidity
73628;BME280;61923;51.846;5.856;2023-03-01T00:00:40;103063.66;;;12.61;59.26
73628;BME280;61923;51.846;5.856;2023-03-01T00:03:06;103068.13;;;12.59;59.29
73628;BME280;61923;51.846;5.856;2023-03-01T00:05:31;103061.22;;;12.58;59.18
73628;BME280;61923;51.846;5.856;2023-03-01T00:07:57;103023.50;;;12.33;59.32
73628;BME280;61923;51.846;5.856;2023-03-01T00:10:23;103058.69;;;12.56;59.41
73628;BME280;61923;51.846;5.856;2023-03-01T00:12:48;103055.94;;;12.59;59.29
73628;BME280;61923;51.846;5.856;2023-03-01T00:15:14;103068.97;;;12.59;59.53
73628;BME280;61923;51.846;5.856;2023-03-01T00:17:39;103054.34;;;12.57;59.55
73628;BME280;61923;51.846;5.856;2023-03-01T00:20:05;103057.63;;;12.60;59.54
73628;BME280;61923;51.846;5.856;2023-03-01T00:22:35;103063.75;;;12.59;59.74
73628;BME280;61923;51.846;5.856;2023-03-01T00:25:01;103054.25;;;12.58;59.71
73628;BME280;61923;51.846;5.856;2023-03-01T00:27:26;103057.78;;;12.57;59.83
73628;BME280;61923;51.846;5.856;2023-03-01T00:29:52;103049.47;;;12.50;59.97
73628;BME280;61923;51.846;5.856;2023-03-01T00:32:17;103041.66;;;12.50;59.84
73628;BME280;61923;51.846;5.856;2023-03-01T00:34:42;103043.16;;;12.54;59.99
73628;BME280;61923;51.846;5.856;2023-03-01T00:37:14;103049.22;;;12.55;60.09
73628;BME280;61923;51.846;5.856;2023-03-01T00:39:39;103042.28;;;12.54;60.23
73628;BME280;61923;51.846;5.856;2023-03-01T00:42:04;103039.63;;;12.55;60.17
73628;BME280;61923;51.846;5.856;2023-03-01T00:44:30;103043.16;;;12.54;60.04
73628;BME280;61923;51.846;5.856;2023-03-01T00:46:55;103040.63;;;12.53;60.07
73628;BME280;61923;51.846;5.856;2023-03-01T00:49:21;103034.59;;;12.52;60.27
73628;BME280;61923;51.846;5.856;2023-03-01T00:51:46;103028.84;;;12.46;60.33
73628;BME280;61923;51.846;5.856;2023-03-01T00:54:11;103027.88;;;12.48;60.25
73628;BME280;61923;51.846;5.856;2023-03-01T00:56:37;103029.88;;;12.43;60.19
73628;BME280;61923;51.846;5.856;2023-03-01T00:59:02;103035.69;;;12.48;60.32
73628;BME280;61923;51.846;5.856;2023-03-01T01:01:29;103033.91;;;12.49;60.39
73628;BME280;61923;51.846;5.856;2023-03-01T01:03:57;103020.22;;;12.45;60.33
73628;BME280;61923;51.846;5.856;2023-03-01T01:06:26;103020.81;;;12.50;60.16
73628;BME280;61923;51.846;5.856;2023-03-01T01:08:53;103016.50;;;12.49;60.42
73628;BME280;61923;51.846;5.856;2023-03-01T01:11:20;103016.59;;;12.48;60.30
73628;BME280;61923;51.846;5.856;2023-03-01T01:13:46;103014.09;;;12.46;60.38
73628;BME280;61923;51.846;5.856;2023-03-01T01:16:12;102998.78;;;12.40;60.42
73628;BME280;61923;51.846;5.856;2023-03-01T01:18:39;103008.88;;;12.46;60.33
73628;BME280;61923;51.846;5.856;2023-03-01T01:21:09;103000.31;;;12.44;60.39
73628;BME280;61923;51.846;5.856;2023-03-01T01:23:36;103002.16;;;12.42;60.44
73628;BME280;61923;51.846;5.856;2023-03-01T01:26:06;103002.91;;;12.44;60.42
73628;BME280;61923;51.846;5.856;2023-03-01T01:28:32;103000.94;;;12.48;60.88
73628;BME280;61923;51.846;5.856;2023-03-01T01:30:58;102984.06;;;12.39;60.42
73628;BME280;61923;51.846;5.856;2023-03-01T01:33:23;102989.69;;;12.47;60.45
73628;BME280;61923;51.846;5.856;2023-03-01T01:35:49;102987.91;;;12.48;60.77
73628;BME280;61923;51.846;5.856;2023-03-01T01:38:14;102988.03;;;12.46;60.81
73628;BME280;61923;51.846;5.856;2023-03-01T01:40:44;102987.28;;;12.44;60.80
73628;BME280;61923;51.846;5.856;2023-03-01T01:43:25;102980.28;;;12.45;60.79
73628;BME280;61923;51.846;5.856;2023-03-01T01:45:57;102987.16;;;12.46;60.57
73628;BME280;61923;51.846;5.856;2023-03-01T01:48:29;102975.91;;;12.45;60.70
73628;BME280;61923;51.846;5.856;2023-03-01T01:51:09;102964.41;;;12.33;60.88
73628;BME280;61923;51.846;5.856;2023-03-01T01:53:36;102980.28;;;12.45;60.77
73628;BME280;61923;51.846;5.856;2023-03-01T01:56:03;102982.97;;;12.43;60.76
73628;BME280;61923;51.846;5.856;2023-03-01T01:58:31;102983.91;;;12.42;60.82
73628;BME280;61923;51.846;5.856;2023-03-01T02:00:56;102984.81;;;12.41;60.75
73628;BME280;61923;51.846;5.856;2023-03-01T02:03:26;102979.53;;;12.43;60.70
73628;BME280;61923;51.846;5.856;2023-03-01T02:08:28;102979.63;;;12.41;60.88
73628;BME280;61923;51.846;5.856;2023-03-01T02:10:56;102988.19;;;12.43;60.79
73628;BME280;61923;51.846;5.856;2023-03-01T02:13:22;102988.03;;;12.46;60.79
73628;BME280;61923;51.846;5.856;2023-03-01T02:15:48;102988.94;;;12.45;60.94
73628;BME280;61923;51.846;5.856;2023-03-01T02:18:18;102988.09;;;12.45;61.32
73628;BME280;61923;51.846;5.856;2023-03-01T02:23:55;102972.53;;;12.43;60.90
73628;BME280;61923;51.846;5.856;2023-03-01T02:26:34;102981.31;;;12.42;61.15
73628;BME280;61923;51.846;5.856;2023-03-01T02:29:02;102976.41;;;12.36;60.90
73628;BME280;61923;51.846;5.856;2023-03-01T02:31:28;102953.41;;;12.28;61.07
73628;BME280;61923;51.846;5.856;2023-03-01T02:34:17;102964.16;;;12.38;61.20
73628;BME280;61923;51.846;5.856;2023-03-01T02:36:49;102958.16;;;12.36;61.19
73628;BME280;61923;51.846;5.856;2023-03-01T02:39:40;102952.41;;;12.31;61.32
73628;BME280;61923;51.846;5.856;2023-03-01T02:42:12;102963.38;;;12.36;61.05
73628;BME280;61923;51.846;5.856;2023-03-01T02:44:38;102963.50;;;12.34;61.07
73628;BME280;61923;51.846;5.856;2023-03-01T02:47:04;102962.56;;;12.35;61.14
73628;BME280;61923;51.846;5.856;2023-03-01T02:49:33;102957.41;;;12.34;60.99
73628;BME280;61923;51.846;5.856;2023-03-01T02:57:26;102958.44;;;12.31;61.04
73628;BME280;61923;51.846;5.856;2023-03-01T02:59:54;102963.66;;;12.31;61.05
73628;BME280;61923;51.846;5.856;2023-03-01T03:02:27;102954.16;;;12.30;60.93
73628;BME280;61923;51.846;5.856;2023-03-01T03:05:09;102951.91;;;12.24;61.09
73628;BME280;61923;51.846;5.856;2023-03-01T03:07:38;102955.09;;;12.29;61.24
73628;BME280;61923;51.846;5.856;2023-03-01T03:10:07;102948.22;;;12.28;61.13
73628;BME280;61923;51.846;5.856;2023-03-01T03:12:33;102950.88;;;12.27;61.28
73628;BME280;61923;51.846;5.856;2023-03-01T03:14:58;102950.06;;;12.26;61.28
73628;BME280;61923;51.846;5.856;2023-03-01T03:17:24;102954.31;;;12.27;61.15
73628;BME280;61923;51.846;5.856;2023-03-01T03:19:49;102959.63;;;12.26;61.16
73628;BME280;61923;51.846;5.856;2023-03-01T03:22:15;102952.75;;;12.25;61.21
73628;BME280;61923;51.846;5.856;2023-03-01T03:24:40;102942.31;;;12.25;61.24
73628;BME280;61923;51.846;5.856;2023-03-01T03:27:06;102945.75;;;12.25;61.33
73628;BME280;61923;51.846;5.856;2023-03-01T03:29:33;102941.50;;;12.24;61.22
73628;BME280;61923;51.846;5.856;2023-03-01T03:31:58;102944.19;;;12.23;61.47
73628;BME280;61923;51.846;5.856;2023-03-01T03:34:24;102934.66;;;12.22;61.33
73628;BME280;61923;51.846;5.856;2023-03-01T03:36:55;102939.13;;;12.20;61.12
73628;BME280;61923;51.846;5.856;2023-03-01T03:39:27;102943.22;;;12.24;61.48
73628;BME280;61923;51.846;5.856;2023-03-01T03:41:54;102913.19;;;12.02;61.48
73628;BME280;61923;51.846;5.856;2023-03-01T03:44:20;102947.69;;;12.22;61.32
73628;BME280;61923;51.846;5.856;2023-03-01T03:46:46;102949.53;;;12.20;61.38
73628;BME280;61923;51.846;5.856;2023-03-01T03:49:11;102949.53;;;12.20;61.38
73628;BME280;61923;51.846;5.856;2023-03-01T03:51:37;102938.28;;;12.19;61.39
73628;BME280;61923;51.846;5.856;2023-03-01T03:54:02;102942.66;;;12.19;61.18
73628;BME280;61923;51.846;5.856;2023-03-01T03:56:28;102935.75;;;12.18;61.39
73628;BME280;61923;51.846;5.856;2023-03-01T03:58:53;102935.75;;;12.18;61.20
73628;BME280;61923;51.846;5.856;2023-03-01T04:01:18;102928.03;;;12.16;61.26
73628;BME280;61923;51.846;5.856;2023-03-01T04:03:44;102933.25;;;12.16;61.35
73628;BME280;61923;51.846;5.856;2023-03-01T04:06:12;102926.97;;;12.20;61.12
73628;BME280;61923;51.846;5.856;2023-03-01T04:08:38;102915.88;;;12.17;61.02
73628;BME280;61923;51.846;5.856;2023-03-01T04:11:04;102924.34;;;12.20;61.22
73628;BME280;61923;51.846;5.856;2023-03-01T04:13:49;102921.31;;;12.12;61.26
73628;BME280;61923;51.846;5.856;2023-03-01T04:16:14;102931.56;;;12.15;61.09
73628;BME280;61923;51.846;5.856;2023-03-01T04:18:40;102928.22;;;12.13;61.06
73628;BME280;61923;51.846;5.856;2023-03-01T04:21:05;102924.78;;;12.12;61.18
73628;BME280;61923;51.846;5.856;2023-03-01T04:23:30;102922.19;;;12.12;61.06
73628;BME280;61923;51.846;5.856;2023-03-01T04:25:58;102923.09;;;12.11;61.18
73628;BME280;61923;51.846;5.856;2023-03-01T04:30:58;102910.25;;;12.08;61.13
73628;BME280;61923;51.846;5.856;2023-03-01T04:33:25;102902.31;;;12.10;61.10
73628;BME280;61923;51.846;5.856;2023-03-01T04:35:51;102894.97;;;12.02;61.18
73628;BME280;61923;51.846;5.856;2023-03-01T04:38:20;102909.22;;;12.11;61.28
73628;BME280;61923;51.846;5.856;2023-03-01T04:40:46;102907.72;;;12.07;61.23
73628;BME280;61923;51.846;5.856;2023-03-01T04:43:12;102905.94;;;12.07;61.09
73628;BME280;61923;51.846;5.856;2023-03-01T04:45:40;102905.03;;;12.08;60.87
73628;BME280;61923;51.846;5.856;2023-03-01T04:48:06;102905.13;;;12.07;61.07
73628;BME280;61923;51.846;5.856;2023-03-01T04:50:31;102905.19;;;12.05;60.95
73628;BME280;61923;51.846;5.856;2023-03-01T04:52:57;102911.16;;;12.07;60.97
73628;BME280;61923;51.846;5.856;2023-03-01T04:55:27;102907.88;;;12.04;60.94
73628;BME280;61923;51.846;5.856;2023-03-01T04:57:53;102903.63;;;12.03;61.00
73628;BME280;61923;51.846;5.856;2023-03-01T05:00:20;102901.69;;;12.06;60.98
73628;BME280;61923;51.846;5.856;2023-03-01T05:02:55;102903.44;;;12.06;61.03
73628;BME280;61923;51.846;5.856;2023-03-01T05:05:24;102894.88;;;12.04;61.02
73628;BME280;61923;51.846;5.856;2023-03-01T05:07:52;102890.69;;;12.01;61.10
73628;BME280;61923;51.846;5.856;2023-03-01T05:10:18;102890.50;;;12.04;61.06
73628;BME280;61923;51.846;5.856;2023-03-01T05:12:43;102884.44;;;12.04;61.06
73628;BME280;61923;51.846;5.856;2023-03-01T05:15:09;102884.56;;;12.02;61.19
73628;BME280;61923;51.846;5.856;2023-03-01T05:17:34;102875.97;;;12.00;61.44
73628;BME280;61923;51.846;5.856;2023-03-01T05:20:00;102868.94;;;12.02;61.20
73628;BME280;61923;51.846;5.856;2023-03-01T05:22:26;102852.88;;;11.94;61.30
73628;BME280;61923;51.846;5.856;2023-03-01T05:24:52;102855.31;;;11.97;61.23
73628;BME280;61923;51.846;5.856;2023-03-01T05:27:19;102856.16;;;11.98;61.17
73628;BME280;61923;51.846;5.856;2023-03-01T05:29:47;102855.13;;;12.00;61.39
73628;BME280;61923;51.846;5.856;2023-03-01T05:32:12;102850.78;;;12.01;61.24
73628;BME280;61923;51.846;5.856;2023-03-01T05:34:41;102846.56;;;11.98;61.45
73628;BME280;61923;51.846;5.856;2023-03-01T05:37:06;102833.13;;;11.90;61.04
73628;BME280;61923;51.846;5.856;2023-03-01T05:39:33;102844.91;;;11.97;61.25
73628;BME280;61923;51.846;5.856;2023-03-01T05:42:00;102840.03;;;11.91;61.34
73628;BME280;61923;51.846;5.856;2023-03-01T05:44:27;102848.34;;;11.98;61.28
73628;BME280;61923;51.846;5.856;2023-03-01T05:46:53;102847.50;;;11.97;61.39
73628;BME280;61923;51.846;5.856;2023-03-01T05:49:19;102852.88;;;11.94;61.32
73628;BME280;61923;51.846;5.856;2023-03-01T05:51:48;102850.19;;;11.95;61.36
73628;BME280;61923;51.846;5.856;2023-03-01T05:54:14;102849.34;;;11.95;61.12
73628;BME280;61923;51.846;5.856;2023-03-01T05:56:40;102851.03;;;11.96;61.07
73628;BME280;61923;51.846;5.856;2023-03-01T05:59:06;102847.66;;;11.94;61.18
73628;BME280;61923;51.846;5.856;2023-03-01T06:01:32;102842.66;;;11.91;61.17
73628;BME280;61923;51.846;5.856;2023-03-01T06:03:58;102851.28;;;11.91;61.22
73628;BME280;61923;51.846;5.856;2023-03-01T06:06:25;102843.56;;;11.90;61.17
73628;BME280;61923;51.846;5.856;2023-03-01T06:08:51;102853.53;;;11.98;61.15
73628;BME280;61923;51.846;5.856;2023-03-01T06:11:16;102848.59;;;11.93;61.33
73628;BME280;61923;51.846;5.856;2023-03-01T06:13:43;102862.44;;;11.93;61.41
73628;BME280;61923;51.846;5.856;2023-03-01T06:16:09;102861.69;;;11.91;61.50
73628;BME280;61923;51.846;5.856;2023-03-01T06:18:36;102853.81;;;11.93;61.27
73628;BME280;61923;51.846;5.856;2023-03-01T06:21:01;102856.34;;;11.94;61.64
73628;BME280;61923;51.846;5.856;2023-03-01T06:23:27;102851.22;;;11.93;61.55
73628;BME280;61923;51.846;5.856;2023-03-01T06:25:52;102860.59;;;11.95;61.23
73628;BME280;61923;51.846;5.856;2023-03-01T06:28:18;102840.16;;;11.88;61.33
73628;BME280;61923;51.846;5.856;2023-03-01T06:30:44;102841.91;;;11.89;61.34
73628;BME280;61923;51.846;5.856;2023-03-01T06:33:09;102847.59;;;11.95;61.52
73628;BME280;61923;51.846;5.856;2023-03-01T06:35:35;102845.81;;;11.96;61.27
73628;BME280;61923;51.846;5.856;2023-03-01T06:38:01;102846.75;;;11.95;61.38
73628;BME280;61923;51.846;5.856;2023-03-01T06:40:28;102853.63;;;11.96;61.46
73628;BME280;61923;51.846;5.856;2023-03-01T06:42:53;102856.97;;;11.98;61.54
73628;BME280;61923;51.846;5.856;2023-03-01T06:45:20;102855.31;;;11.97;61.35
73628;BME280;61923;51.846;5.856;2023-03-01T06:47:46;102854.97;;;12.03;60.97
73628;BME280;61923;51.846;5.856;2023-03-01T06:50:12;102851.84;;;12.12;60.89
73628;BME280;61923;51.846;5.856;2023-03-01T06:52:38;102855.75;;;12.20;60.86
73628;BME280;61923;51.846;5.856;2023-03-01T06:55:05;102860.22;;;12.18;60.94
73628;BME280;61923;51.846;5.856;2023-03-01T06:57:30;102847.91;;;12.05;60.70
73628;BME280;61923;51.846;5.856;2023-03-01T06:59:56;102852.59;;;12.14;60.22
73628;BME280;61923;51.846;5.856;2023-03-01T07:02:21;102857.81;;;12.14;60.26
73628;BME280;61923;51.846;5.856;2023-03-01T07:04:49;102857.97;;;12.11;60.41
73628;BME280;61923;51.846;5.856;2023-03-01T07:07:15;102856.78;;;12.17;60.07
73628;BME280;61923;51.846;5.856;2023-03-01T07:09:40;102844.09;;;12.41;58.65
73628;BME280;61923;51.846;5.856;2023-03-01T07:12:06;102843.16;;;12.72;56.95
73628;BME280;61923;51.846;5.856;2023-03-01T07:14:33;102846.22;;;12.79;56.86
73628;BME280;61923;51.846;5.856;2023-03-01T07:16:58;102851.44;;;12.93;56.71
73628;BME280;61923;51.846;5.856;2023-03-01T07:19:23;102840.84;;;12.97;56.67
73628;BME280;61923;51.846;5.856;2023-03-01T07:21:49;102850.16;;;13.01;56.23
73628;BME280;61923;51.846;5.856;2023-03-01T07:24:14;102842.47;;;13.12;55.82
73628;BME280;61923;51.846;5.856;2023-03-01T07:26:40;102831.78;;;13.17;55.32
73628;BME280;61923;51.846;5.856;2023-03-01T07:29:06;102834.66;;;13.41;54.26
73628;BME280;61923;51.846;5.856;2023-03-01T07:31:32;102842.91;;;13.62;53.83
73628;BME280;61923;51.846;5.856;2023-03-01T07:33:58;102844.22;;;13.82;53.43
73628;BME280;61923;51.846;5.856;2023-03-01T07:36:24;102827.97;;;13.91;52.62
73628;BME280;61923;51.846;5.856;2023-03-01T07:38:50;102853.44;;;14.14;53.03
73628;BME280;61923;51.846;5.856;2023-03-01T07:41:15;102852.09;;;14.22;53.68
73628;BME280;61923;51.846;5.856;2023-03-01T07:43:41;102851.47;;;14.31;53.85
73628;BME280;61923;51.846;5.856;2023-03-01T07:46:06;102849.41;;;14.36;54.41
73628;BME280;61923;51.846;5.856;2023-03-01T07:48:32;102856.94;;;14.53;53.85
73628;BME280;61923;51.846;5.856;2023-03-01T07:51:03;102851.31;;;14.60;54.18
73628;BME280;61923;51.846;5.856;2023-03-01T07:53:30;102846.94;;;14.73;53.43
73628;BME280;61923;51.846;5.856;2023-03-01T07:56:03;102845.91;;;14.88;53.60
73628;BME280;61923;51.846;5.856;2023-03-01T07:58:29;102844.84;;;15.04;52.83
73628;BME280;61923;51.846;5.856;2023-03-01T08:00:54;102847.34;;;15.05;53.43
73628;BME280;61923;51.846;5.856;2023-03-01T08:03:20;102834.78;;;14.98;54.20
73628;BME280;61923;51.846;5.856;2023-03-01T08:05:45;102844.19;;;15.13;53.88
73628;BME280;61923;51.846;5.856;2023-03-01T08:08:10;102844.66;;;15.31;53.34
73628;BME280;61923;51.846;5.856;2023-03-01T08:10:36;102848.53;;;15.38;53.69
73628;BME280;61923;51.846;5.856;2023-03-01T08:13:02;102860.22;;;15.58;51.07
73628;BME280;61923;51.846;5.856;2023-03-01T08:15:27;102851.53;;;15.58;52.06
73628;BME280;61923;51.846;5.856;2023-03-01T08:17:52;102859.75;;;15.64;52.47
73628;BME280;61923;51.846;5.856;2023-03-01T08:20:18;102854.72;;;15.74;51.96
73628;BME280;61923;51.846;5.856;2023-03-01T08:22:44;102859.06;;;15.86;51.96
73628;BME280;61923;51.846;5.856;2023-03-01T08:25:10;102853.47;;;15.80;52.29
73628;BME280;61923;51.846;5.856;2023-03-01T08:27:35;102859.19;;;15.85;52.76
73628;BME280;61923;51.846;5.856;2023-03-01T08:30:04;102856.53;;;16.09;50.69
73628;BME280;61923;51.846;5.856;2023-03-01T08:32:32;102850.47;;;16.08;50.56
73628;BME280;61923;51.846;5.856;2023-03-01T08:35:00;102847.59;;;16.11;51.18
73628;BME280;61923;51.846;5.856;2023-03-01T08:37:25;102856.22;;;16.13;51.19
73628;BME280;61923;51.846;5.856;2023-03-01T08:39:50;102845.72;;;16.13;50.97
73628;BME280;61923;51.846;5.856;2023-03-01T08:42:16;102838.75;;;16.37;49.64
73628;BME280;61923;51.846;5.856;2023-03-01T08:44:41;102834.16;;;16.51;48.69
73628;BME280;61923;51.846;5.856;2023-03-01T08:47:06;102832.13;;;16.66;47.92
73628;BME280;61923;51.846;5.856;2023-03-01T08:49:31;102840.34;;;16.73;47.63
73628;BME280;61923;51.846;5.856;2023-03-01T08:51:57;102821.06;;;16.85;47.17
73628;BME280;61923;51.846;5.856;2023-03-01T08:54:23;102829.41;;;16.90;46.91
73628;BME280;61923;51.846;5.856;2023-03-01T08:56:49;102825.25;;;16.88;47.02
73628;BME280;61923;51.846;5.856;2023-03-01T08:59:15;102816.78;;;16.96;46.94
73628;BME280;61923;51.846;5.856;2023-03-01T09:01:42;102816.28;;;16.90;47.38
73628;BME280;61923;51.846;5.856;2023-03-01T09:04:12;102790.66;;;16.83;47.13
73628;BME280;61923;51.846;5.856;2023-03-01T09:06:37;102811.16;;;16.89;47.56
73628;BME280;61923;51.846;5.856;2023-03-01T09:09:04;102805.75;;;16.79;47.47
73628;BME280;61923;51.846;5.856;2023-03-01T09:11:30;102813.50;;;16.81;47.77
73628;BME280;61923;51.846;5.856;2023-03-01T09:13:56;102816.72;;;16.73;47.61
73628;BME280;61923;51.846;5.856;2023-03-01T09:16:22;102825.09;;;16.56;48.31
73628;BME280;61923;51.846;5.856;2023-03-01T09:18:50;102823.50;;;16.53;48.12
73628;BME280;61923;51.846;5.856;2023-03-01T09:21:17;102814.09;;;16.50;48.16
73628;BME280;61923;51.846;5.856;2023-03-01T09:23:45;102812.88;;;16.43;47.84
73628;BME280;61923;51.846;5.856;2023-03-01T09:26:16;102808.34;;;16.45;47.35
73628;BME280;61923;51.846;5.856;2023-03-01T09:28:42;102813.59;;;16.45;47.33
73628;BME280;61923;51.846;5.856;2023-03-01T09:31:08;102802.41;;;16.32;47.65
73628;BME280;61923;51.846;5.856;2023-03-01T09:33:33;102803.09;;;16.23;47.85
73628;BME280;61923;51.846;5.856;2023-03-01T09:36:04;102798.66;;;16.12;48.20
73628;BME280;61923;51.846;5.856;2023-03-01T09:38:30;102797.53;;;16.03;48.12
73628;BME280;61923;51.846;5.856;2023-03-01T09:40:56;102794.44;;;15.98;48.21
73628;BME280;61923;51.846;5.856;2023-03-01T09:43:38;102794.91;;;15.92;48.11
73628;BME280;61923;51.846;5.856;2023-03-01T09:46:13;102793.78;;;15.83;47.16
73628;BME280;61923;51.846;5.856;2023-03-01T09:48:49;102794.38;;;15.76;47.01
73628;BME280;61923;51.846;5.856;2023-03-01T09:51:23;102784.28;;;15.69;46.65
73628;BME280;61923;51.846;5.856;2023-03-01T09:53:51;102783.81;;;15.64;46.89
73628;BME280;61923;51.846;5.856;2023-03-01T09:56:24;102781.38;;;15.50;45.97
73628;BME280;61923;51.846;5.856;2023-03-01T09:58:57;102760.19;;;15.29;45.73
73628;BME280;61923;51.846;5.856;2023-03-01T10:01:58;102773.88;;;15.32;45.74
73628;BME280;61923;51.846;5.856;2023-03-01T10:05:05;102770.03;;;15.25;45.31
73628;BME280;61923;51.846;5.856;2023-03-01T10:10:27;102754.72;;;15.08;45.21
73628;BME280;61923;51.846;5.856;2023-03-01T10:12:55;102754.63;;;14.97;45.53
73628;BME280;61923;51.846;5.856;2023-03-01T10:15:30;102761.22;;;14.89;46.16
73628;BME280;61923;51.846;5.856;2023-03-01T10:18:06;102749.97;;;14.76;46.24
73628;BME280;61923;51.846;5.856;2023-03-01T10:20:41;102749.75;;;14.79;44.81
73628;BME280;61923;51.846;5.856;2023-03-01T10:23:09;102755.50;;;14.84;43.55
73628;BME280;61923;51.846;5.856;2023-03-01T10:28:16;102736.03;;;14.88;43.03
73628;BME280;61923;51.846;5.856;2023-03-01T10:30:43;102730.69;;;14.90;43.02
73628;BME280;61923;51.846;5.856;2023-03-01T10:35:40;102726.00;;;14.82;43.86
73628;BME280;61923;51.846;5.856;2023-03-01T10:38:11;102725.06;;;14.83;43.90
73628;BME280;61923;51.846;5.856;2023-03-01T10:40:56;102722.53;;;14.82;43.88
73628;BME280;61923;51.846;5.856;2023-03-01T10:43:27;102724.94;;;14.85;44.10
73628;BME280;61923;51.846;5.856;2023-03-01T10:45:56;102723.41;;;14.82;44.75
73628;BME280;61923;51.846;5.856;2023-03-01T10:48:22;102714.81;;;14.80;44.80
73628;BME280;61923;51.846;5.856;2023-03-01T10:51:04;102727.16;;;14.78;44.67
73628;BME280;61923;51.846;5.856;2023-03-01T10:53:48;102729.66;;;14.80;44.70
73628;BME280;61923;51.846;5.856;2023-03-01T10:56:15;102715.34;;;14.72;45.18
73628;BME280;61923;51.846;5.856;2023-03-01T10:59:00;102701.44;;;14.72;45.32
73628;BME280;61923;51.846;5.856;2023-03-01T11:01:33;102717.16;;;14.72;45.59
73628;BME280;61923;51.846;5.856;2023-03-01T11:06:32;102720.50;;;14.74;45.68
73628;BME280;61923;51.846;5.856;2023-03-01T11:09:17;102698.19;;;14.55;45.49
73628;BME280;61923;51.846;5.856;2023-03-01T11:11:44;102726.88;;;14.70;45.80
73628;BME280;61923;51.846;5.856;2023-03-01T11:14:16;102727.06;;;14.67;46.02
73628;BME280;61923;51.846;5.856;2023-03-01T11:16:45;102722.91;;;14.64;45.98
73628;BME280;61923;51.846;5.856;2023-03-01T11:22:01;102714.44;;;14.61;46.63
73628;BME280;61923;51.846;5.856;2023-03-01T11:24:51;102705.13;;;14.57;46.31
73628;BME280;61923;51.846;5.856;2023-03-01T11:27:46;102687.88;;;14.41;46.50
73628;BME280;61923;51.846;5.856;2023-03-01T11:35:59;102707.00;;;14.54;46.90
73628;BME280;61923;51.846;5.856;2023-03-01T11:38:26;102711.38;;;14.54;47.17
73628;BME280;61923;51.846;5.856;2023-03-01T11:40:58;102705.53;;;14.50;47.08
73628;BME280;61923;51.846;5.856;2023-03-01T11:43:30;102700.31;;;14.50;47.17
73628;BME280;61923;51.846;5.856;2023-03-01T11:52:24;102694.34;;;14.48;47.34
73628;BME280;61923;51.846;5.856;2023-03-01T12:00:08;102686.81;;;14.44;47.42
73628;BME280;61923;51.846;5.856;2023-03-01T12:06:00;102684.31;;;14.42;47.68
73628;BME280;61923;51.846;5.856;2023-03-01T12:17:29;102686.69;;;14.45;47.92
73628;BME280;61923;51.846;5.856;2023-03-01T12:25:56;102661.72;;;14.41;48.04
73628;BME280;61923;51.846;5.856;2023-03-01T12:41:46;102656.34;;;14.55;48.02
73628;BME280;61923;51.846;5.856;2023-03-01T12:50:24;102649.28;;;14.58;48.11
73628;BME280;61923;51.846;5.856;2023-03-01T12:52:57;102639.47;;;14.35;49.01
73628;BME280;61923;51.846;5.856;2023-03-01T12:55:39;102643.03;;;14.22;49.42
73628;BME280;61923;51.846;5.856;2023-03-01T13:09:44;102600.66;;;13.92;50.09
73628;BME280;61923;51.846;5.856;2023-03-01T13:17:49;102593.34;;;13.85;50.11
73628;BME280;61923;51.846;5.856;2023-03-01T13:20:17;102592.59;;;13.83;50.13
73628;BME280;61923;51.846;5.856;2023-03-01T13:22:45;102584.13;;;13.79;50.01
73628;BME280;61923;51.846;5.856;2023-03-01T13:25:18;102581.84;;;13.74;50.08
73628;BME280;61923;51.846;5.856;2023-03-01T13:27:46;102592.94;;;13.78;50.08
73628;BME280;61923;51.846;5.856;2023-03-01T13:33:41;102578.28;;;13.75;50.05
73628;BME280;61923;51.846;5.856;2023-03-01T13:36:08;102573.06;;;13.75;49.95
73628;BME280;61923;51.846;5.856;2023-03-01T13:38:37;102563.69;;;13.73;50.05
73628;BME280;61923;51.846;5.856;2023-03-01T13:41:04;102553.84;;;13.64;50.42
73628;BME280;61923;51.846;5.856;2023-03-01T13:43:31;102556.25;;;13.67;50.01
73628;BME280;61923;51.846;5.856;2023-03-01T13:45:58;102557.09;;;13.67;50.07
73628;BME280;61923;51.846;5.856;2023-03-01T13:48:27;102556.16;;;13.68;50.12
73628;BME280;61923;51.846;5.856;2023-03-01T13:50:58;102550.09;;;13.68;50.10
73628;BME280;61923;51.846;5.856;2023-03-01T13:53:26;102548.44;;;13.67;50.25
73628;BME280;61923;51.846;5.856;2023-03-01T13:56:01;102545.09;;;13.65;50.27
73628;BME280;61923;51.846;5.856;2023-03-01T14:01:01;102540.94;;;13.62;50.28
73628;BME280;61923;51.846;5.856;2023-03-01T14:03:28;102533.19;;;13.61;50.18
73628;BME280;61923;51.846;5.856;2023-03-01T14:08:29;102530.47;;;13.62;50.48
73628;BME280;61923;51.846;5.856;2023-03-01T14:14:09;102528.91;;;13.60;50.51
73628;BME280;61923;51.846;5.856;2023-03-01T14:19:43;102515.97;;;13.58;50.42
73628;BME280;61923;51.846;5.856;2023-03-01T14:22:28;102501.75;;;13.49;50.61
73628;BME280;61923;51.846;5.856;2023-03-01T14:27:23;102500.94;;;13.49;50.65
73628;BME280;61923;51.846;5.856;2023-03-01T14:29:59;102499.59;;;13.56;50.53
73628;BME280;61923;51.846;5.856;2023-03-01T14:32:27;102487.78;;;13.50;50.67
73628;BME280;61923;51.846;5.856;2023-03-01T14:34:54;102493.22;;;13.60;50.53
73628;BME280;61923;51.846;5.856;2023-03-01T14:37:28;102487.72;;;14.26;49.22
73628;BME280;61923;51.846;5.856;2023-03-01T14:39:55;102488.44;;;14.76;47.47
73628;BME280;61923;51.846;5.856;2023-03-01T14:42:23;102485.88;;;14.99;46.18
73628;BME280;61923;51.846;5.856;2023-03-01T14:44:51;102480.69;;;15.10;46.11
73628;BME280;61923;51.846;5.856;2023-03-01T14:47:27;102477.34;;;15.08;45.92
73628;BME280;61923;51.846;5.856;2023-03-01T14:50:19;102445.44;;;14.91;46.04
73628;BME280;61923;51.846;5.856;2023-03-01T14:52:45;102461.66;;;15.19;45.52